Historyczne dane pomiarowe

Dodano dane terminowe – wersja testowa.

Dane z okresu 1951-2019

Wersja bazy: 1.34 [2019-03-16, lista zmian], aktualizacja planowana na 2019-04-15

Dane meteo z obszaru Polski uzyskane na podstawie danych udostępnionych przez Instytut Meteorologii i Gospodarki Wodnej – Państwowy Instytut Badawczy.

 

Wybierz Datę:    

       

TemperaturaWilgotnośćWiatrCiśnienieOpadyŚniegCzas trwania zjawisk
 Stacja t tx tn tng RH VA  wxwx mslp ppp RRR   cm mm wxwxwxwxwxwxwx
1994-08-14 15.9 20.0 13.2 10.7 60.5- 1.7 2.7---- 0.0------------
1994-08-13 18.1 22.5 15.8 13.3 77.5- 5.0 2.7---- 0.0------------
1994-08-12 16.9 21.4 15.5 12.2 85.3- 6.7 2.3---- 6.9------------
1994-08-11 20.2 25.0 17.7 16.7 83.8- 5.3 1.7---- 1.7------------
1994-08-10 21.5 29.1 14.0 11.7 69.3- 0.3 0.7---- 24.5------------
1994-08-09 18.7 23.6 17.8 17.0 90.5- 5.3 1.3---- 20.9------------
1994-08-08 22.0 28.2 18.7 16.9 74.8- 5.7 1.3---- 3.6------------
1994-08-07 23.3 31.4 16.0 15.7 73.5- 4.0 0.7---- 6.0------------
1994-08-06 24.8 33.7 15.5 12.8 57.3- 2.7 1.3---- 0.9------------
1994-08-05 23.8 32.5 14.9 12.6 66.5- 0.3 0.3---- 0.0------------
1994-08-04 23.0 30.5 10.7 13.4 67.5- 0.0 1.0---- 0.0------------
1994-08-03 23.7 30.5 16.6 14.1 69.8- 1.7 1.3---- 1.4------------
1994-08-02 22.8 27.8 18.7 18.7 66.3- 5.0 1.0---- 1.7------------
1994-08-01 27.2 35.5 18.6 15.2 54.5- 3.3 1.7---- 0.0------------
1994-07-31 26.6 35.0 13.6 12.2 54.8- 0.0 0.0---- 0.0------------
1994-07-30 25.5 35.1 13.6 11.3 57.3- 0.3 1.3---- 0.0------------
1994-07-29 25.1 34.8 14.4 11.6 53.8- 0.0 0.7---- 0.0------------
1994-07-28 24.2 34.0 13.9 11.3 61.8- 0.3 1.3---- 0.0------------
1994-07-27 25.4 33.9 16.3 14.1 57.5- 2.0 0.7---- 0.0------------
1994-07-26 23.9 33.0 13.8 12.2 61.3- 0.7 0.3---- 0.0------------
1994-07-25 23.3 32.0 13.0 10.9 53.0- 0.7 0.0---- 0.0------------
1994-07-24 23.2 31.0 12.3 10.3 63.3- 1.3 0.7---- 0.0------------
1994-07-23 21.4 29.9 10.9 8.3 59.5- 1.3 1.0---- 0.0------------
1994-07-22 21.1 29.5 9.3 7.8 59.0- 0.0 0.0---- 0.0------------
1994-07-21 19.7 27.5 10.0 6.9 63.8- 0.0 1.3---- 0.0------------
1994-07-20 19.6 24.8 14.4 11.4 65.5- 1.3 1.3---- 0.0------------
1994-07-19 20.5 24.1 17.8 14.1 77.5- 6.3 1.0---- 0.0------------
1994-07-18 21.5 27.4 16.2 14.4 79.8- 3.0 0.0---- 0.0------------
1994-07-17 22.0 29.1 14.6 12.3 73.5- 2.3 0.3---- 4.3------------
1994-07-16 21.7 29.6 17.0 13.8 73.5- 2.7 1.7---- 2.5------------
1994-07-15 21.7 28.6 15.5 14.1 67.5- 1.7 1.0---- 0.0------------
1994-07-14 22.5 30.1 14.0 11.8 67.3- 3.0 1.0---- 0.0------------
1994-07-13 21.0 28.1 11.9 10.3 68.3- 2.3 1.7---- 0.0------------
1994-07-12 20.3 26.0 14.6 11.7 76.3- 1.7 1.0---- 0.0------------
1994-07-11 18.9 25.9 10.8 9.3 75.0- 4.0 1.7---- 0.0------------
1994-07-10 16.2 20.5 13.1 11.4 83.3- 5.0 1.7---- 1.3------------
1994-07-09 16.3 20.0 10.3 14.6 74.0- 7.0 2.0---- 7.0------------
1994-07-08 16.9 21.0 13.4 11.2 65.3- 3.3 3.7---- 0.0------------
1994-07-07 17.7 25.6 11.9 10.2 80.3- 5.7 1.0---- 3.2------------
1994-07-06 20.9 26.6 12.3 9.8 62.8- 1.7 1.0---- 0.0------------
1994-07-05 20.9 26.7 13.6 11.4 69.8- 5.7 1.0---- 0.2------------
1994-07-04 22.3 30.5 10.7 8.8 57.8- 0.7 0.7---- 0.0------------
1994-07-03 20.5 27.5 9.5 7.8 61.3- 0.0 0.7---- 0.0------------
1994-07-02 19.6 26.0 9.8 7.8 64.8- 0.0 0.7---- 0.0------------
1994-07-01 19.5 24.6 16.0 13.3 69.3- 3.0 1.0---- 0.0------------
1994-06-30 21.4 29.4 19.6 16.5 80.3- 6.0 1.3---- 0.0------------
1994-06-29 25.3 31.1 16.0 13.7 68.3- 0.7 0.7---- 0.0------------
1994-06-28 24.2 30.5 18.7 18.1 77.8- 6.3 0.0---- 0.0------------
1994-06-27 26.8 32.5 19.1 15.2 60.3- 1.3 1.3---- 0.0------------
1994-06-26 22.3 30.5 9.9 8.3 56.8- 0.7 2.3---- 0.0------------
1994-06-25 16.6 25.5 4.7 3.1 57.0- 0.0 0.0---- 0.0------------
1994-06-24 15.0 21.6 5.4 3.6 58.5- 0.3 1.0---- 0.0------------
1994-06-23 18.1 24.5 15.7 14.7 63.3- 4.3 1.0---- 0.0------------
1994-06-22 19.8 26.6 10.4 8.7 65.3- 1.3 1.7---- 0.0------------
1994-06-21 16.2 22.2 7.6 6.3 69.8- 1.7 1.0---- 0.0------------
1994-06-20 17.3 24.6 10.0 8.3 67.8- 5.0 2.3---- 0.0------------
1994-06-19 19.7 27.0 13.2 12.4 66.5- 3.0 2.0---- 0.0------------
1994-06-18 13.0 20.5 5.3 3.3 75.5- 5.0 2.3---- 5.2------------
1994-06-17 11.7 15.5 9.3 8.8 80.8- 5.0 1.0---- 1.5------------
1994-06-16 13.5 17.0 6.1 4.8 72.0- 4.7 2.3---- 1.3------------
246.1 ms

 

Źródłem pochodzenia danych jest Instytut Meteorologii i Gospodarki Wodnej – Państwowy Instytut Badawczy. Dane Instytutu Meteorologii i Gospodarki Wodnej – Państwowego Instytutu Badawczego zostały przetworzone.

Dane źródłowe można odnaleźć na stronie https://dane.imgw.pl